sensor_id;sensor_type;location;lat;lon;timestamp;P1;durP1;ratioP1;P2;durP2;ratioP2
55597;SDS011;41463;53.186;5.552;2022-12-24T00:00:01;56.83;;;19.48;;
55597;SDS011;41463;53.186;5.552;2022-12-24T00:02:26;50.58;;;19.15;;
55597;SDS011;41463;53.186;5.552;2022-12-24T00:04:52;44.22;;;18.35;;
55597;SDS011;41463;53.186;5.552;2022-12-24T00:07:18;43.40;;;18.77;;
55597;SDS011;41463;53.186;5.552;2022-12-24T00:09:44;47.65;;;18.55;;
55597;SDS011;41463;53.186;5.552;2022-12-24T00:12:10;41.80;;;18.08;;
55597;SDS011;41463;53.186;5.552;2022-12-24T00:14:35;42.30;;;18.33;;
55597;SDS011;41463;53.186;5.552;2022-12-24T00:17:01;37.47;;;16.83;;
55597;SDS011;41463;53.186;5.552;2022-12-24T00:19:27;34.65;;;16.45;;
55597;SDS011;41463;53.186;5.552;2022-12-24T00:21:56;36.65;;;17.27;;
55597;SDS011;41463;53.186;5.552;2022-12-24T00:24:22;42.20;;;18.20;;
55597;SDS011;41463;53.186;5.552;2022-12-24T00:26:48;39.97;;;17.23;;
55597;SDS011;41463;53.186;5.552;2022-12-24T00:29:13;39.97;;;17.75;;
55597;SDS011;41463;53.186;5.552;2022-12-24T00:31:39;40.00;;;18.05;;
55597;SDS011;41463;53.186;5.552;2022-12-24T00:34:08;43.75;;;17.45;;
55597;SDS011;41463;53.186;5.552;2022-12-24T00:36:34;49.95;;;18.95;;
55597;SDS011;41463;53.186;5.552;2022-12-24T00:39:00;40.53;;;18.45;;
55597;SDS011;41463;53.186;5.552;2022-12-24T00:41:26;44.45;;;17.67;;
55597;SDS011;41463;53.186;5.552;2022-12-24T00:43:55;40.00;;;17.63;;
55597;SDS011;41463;53.186;5.552;2022-12-24T00:46:23;43.88;;;18.55;;
55597;SDS011;41463;53.186;5.552;2022-12-24T00:48:50;41.05;;;19.13;;
55597;SDS011;41463;53.186;5.552;2022-12-24T00:51:19;47.53;;;20.17;;
55597;SDS011;41463;53.186;5.552;2022-12-24T00:53:46;46.88;;;18.98;;
55597;SDS011;41463;53.186;5.552;2022-12-24T00:56:12;41.08;;;18.95;;
55597;SDS011;41463;53.186;5.552;2022-12-24T00:58:38;41.22;;;19.58;;
55597;SDS011;41463;53.186;5.552;2022-12-24T01:01:03;44.40;;;19.88;;
55597;SDS011;41463;53.186;5.552;2022-12-24T01:03:29;43.05;;;19.48;;
55597;SDS011;41463;53.186;5.552;2022-12-24T01:06:02;44.67;;;19.60;;
55597;SDS011;41463;53.186;5.552;2022-12-24T01:08:31;38.92;;;18.80;;
55597;SDS011;41463;53.186;5.552;2022-12-24T01:10:59;52.20;;;19.77;;
55597;SDS011;41463;53.186;5.552;2022-12-24T01:13:26;45.53;;;19.88;;
55597;SDS011;41463;53.186;5.552;2022-12-24T01:15:52;54.35;;;19.85;;
55597;SDS011;41463;53.186;5.552;2022-12-24T01:18:18;43.08;;;19.58;;
55597;SDS011;41463;53.186;5.552;2022-12-24T01:20:44;40.15;;;19.60;;
55597;SDS011;41463;53.186;5.552;2022-12-24T01:23:10;58.65;;;20.75;;
55597;SDS011;41463;53.186;5.552;2022-12-24T01:25:36;45.60;;;19.52;;
55597;SDS011;41463;53.186;5.552;2022-12-24T01:28:03;45.65;;;19.95;;
55597;SDS011;41463;53.186;5.552;2022-12-24T01:30:29;39.67;;;19.00;;
55597;SDS011;41463;53.186;5.552;2022-12-24T01:32:56;31.30;;;17.10;;
55597;SDS011;41463;53.186;5.552;2022-12-24T01:35:22;38.95;;;17.85;;
55597;SDS011;41463;53.186;5.552;2022-12-24T01:37:48;35.90;;;16.65;;
55597;SDS011;41463;53.186;5.552;2022-12-24T01:40:15;39.97;;;18.45;;
55597;SDS011;41463;53.186;5.552;2022-12-24T01:42:59;40.05;;;18.67;;
55597;SDS011;41463;53.186;5.552;2022-12-24T01:53:41;35.90;;;17.27;;
55597;SDS011;41463;53.186;5.552;2022-12-24T01:56:11;30.70;;;16.10;;
55597;SDS011;41463;53.186;5.552;2022-12-24T01:58:38;30.55;;;16.23;;
55597;SDS011;41463;53.186;5.552;2022-12-24T02:01:07;31.80;;;16.30;;
55597;SDS011;41463;53.186;5.552;2022-12-24T02:03:33;33.08;;;15.73;;
55597;SDS011;41463;53.186;5.552;2022-12-24T02:05:59;29.70;;;16.35;;
55597;SDS011;41463;53.186;5.552;2022-12-24T02:08:25;23.60;;;15.00;;
55597;SDS011;41463;53.186;5.552;2022-12-24T02:11:14;28.77;;;15.60;;
55597;SDS011;41463;53.186;5.552;2022-12-24T02:13:43;26.88;;;14.85;;
55597;SDS011;41463;53.186;5.552;2022-12-24T02:22:05;25.98;;;10.20;;
55597;SDS011;41463;53.186;5.552;2022-12-24T02:24:53;19.98;;;9.18;;
55597;SDS011;41463;53.186;5.552;2022-12-24T02:30:01;26.48;;;8.80;;
55597;SDS011;41463;53.186;5.552;2022-12-24T02:37:47;28.27;;;7.85;;
55597;SDS011;41463;53.186;5.552;2022-12-24T02:40:37;17.27;;;5.70;;
55597;SDS011;41463;53.186;5.552;2022-12-24T02:43:12;13.02;;;5.90;;
55597;SDS011;41463;53.186;5.552;2022-12-24T02:45:44;20.27;;;7.35;;
55597;SDS011;41463;53.186;5.552;2022-12-24T02:48:15;17.08;;;5.63;;
55597;SDS011;41463;53.186;5.552;2022-12-24T02:51:00;12.70;;;6.05;;
55597;SDS011;41463;53.186;5.552;2022-12-24T02:53:28;17.95;;;6.20;;
55597;SDS011;41463;53.186;5.552;2022-12-24T02:56:10;13.88;;;6.22;;
55597;SDS011;41463;53.186;5.552;2022-12-24T03:04:44;23.77;;;6.80;;
55597;SDS011;41463;53.186;5.552;2022-12-24T03:08:12;23.02;;;6.75;;
55597;SDS011;41463;53.186;5.552;2022-12-24T03:11:01;25.42;;;7.20;;
55597;SDS011;41463;53.186;5.552;2022-12-24T03:13:32;24.80;;;7.72;;
55597;SDS011;41463;53.186;5.552;2022-12-24T03:15:58;30.63;;;7.15;;
55597;SDS011;41463;53.186;5.552;2022-12-24T03:18:28;30.23;;;7.75;;
55597;SDS011;41463;53.186;5.552;2022-12-24T03:20:56;34.03;;;8.05;;
55597;SDS011;41463;53.186;5.552;2022-12-24T03:23:40;30.38;;;6.95;;
55597;SDS011;41463;53.186;5.552;2022-12-24T03:26:08;27.75;;;6.75;;
55597;SDS011;41463;53.186;5.552;2022-12-24T03:28:37;31.15;;;7.70;;
55597;SDS011;41463;53.186;5.552;2022-12-24T03:31:05;30.63;;;7.50;;
55597;SDS011;41463;53.186;5.552;2022-12-24T03:33:32;33.90;;;7.18;;
55597;SDS011;41463;53.186;5.552;2022-12-24T03:35:58;29.98;;;7.85;;
55597;SDS011;41463;53.186;5.552;2022-12-24T03:38:24;39.75;;;8.00;;
55597;SDS011;41463;53.186;5.552;2022-12-24T03:40:50;45.58;;;7.65;;
55597;SDS011;41463;53.186;5.552;2022-12-24T03:43:15;38.95;;;6.60;;
55597;SDS011;41463;53.186;5.552;2022-12-24T03:45:41;46.22;;;7.30;;
55597;SDS011;41463;53.186;5.552;2022-12-24T03:48:07;42.90;;;7.85;;
55597;SDS011;41463;53.186;5.552;2022-12-24T03:50:36;46.10;;;6.95;;
55597;SDS011;41463;53.186;5.552;2022-12-24T03:53:05;47.05;;;7.35;;
55597;SDS011;41463;53.186;5.552;2022-12-24T03:55:33;37.17;;;6.63;;
55597;SDS011;41463;53.186;5.552;2022-12-24T03:57:59;48.08;;;7.57;;
55597;SDS011;41463;53.186;5.552;2022-12-24T04:00:28;51.17;;;7.15;;
55597;SDS011;41463;53.186;5.552;2022-12-24T04:02:53;51.33;;;6.90;;
55597;SDS011;41463;53.186;5.552;2022-12-24T04:05:19;50.88;;;7.43;;
55597;SDS011;41463;53.186;5.552;2022-12-24T04:07:45;53.95;;;7.25;;
55597;SDS011;41463;53.186;5.552;2022-12-24T04:10:12;44.80;;;6.03;;
55597;SDS011;41463;53.186;5.552;2022-12-24T04:12:41;49.03;;;6.75;;
55597;SDS011;41463;53.186;5.552;2022-12-24T04:15:07;52.53;;;7.13;;
55597;SDS011;41463;53.186;5.552;2022-12-24T04:17:34;43.53;;;7.53;;
55597;SDS011;41463;53.186;5.552;2022-12-24T04:20:00;44.95;;;6.03;;
55597;SDS011;41463;53.186;5.552;2022-12-24T04:22:25;48.05;;;7.35;;
55597;SDS011;41463;53.186;5.552;2022-12-24T04:24:57;57.05;;;7.18;;
55597;SDS011;41463;53.186;5.552;2022-12-24T04:27:22;41.95;;;7.10;;
55597;SDS011;41463;53.186;5.552;2022-12-24T04:29:51;49.92;;;7.15;;
55597;SDS011;41463;53.186;5.552;2022-12-24T04:32:17;57.67;;;7.55;;
55597;SDS011;41463;53.186;5.552;2022-12-24T04:34:43;47.67;;;7.68;;
55597;SDS011;41463;53.186;5.552;2022-12-24T04:37:09;58.60;;;8.20;;
55597;SDS011;41463;53.186;5.552;2022-12-24T04:39:34;62.00;;;8.65;;
55597;SDS011;41463;53.186;5.552;2022-12-24T04:42:00;48.15;;;7.90;;
55597;SDS011;41463;53.186;5.552;2022-12-24T04:44:26;61.75;;;8.32;;
55597;SDS011;41463;53.186;5.552;2022-12-24T04:46:54;58.28;;;7.90;;
55597;SDS011;41463;53.186;5.552;2022-12-24T04:49:20;72.78;;;8.23;;
55597;SDS011;41463;53.186;5.552;2022-12-24T04:51:45;68.57;;;8.15;;
55597;SDS011;41463;53.186;5.552;2022-12-24T04:54:11;67.50;;;9.02;;
55597;SDS011;41463;53.186;5.552;2022-12-24T04:56:37;55.10;;;7.30;;
55597;SDS011;41463;53.186;5.552;2022-12-24T04:59:05;66.18;;;6.93;;
55597;SDS011;41463;53.186;5.552;2022-12-24T05:01:31;61.47;;;7.47;;
55597;SDS011;41463;53.186;5.552;2022-12-24T05:03:57;52.08;;;7.15;;
55597;SDS011;41463;53.186;5.552;2022-12-24T05:06:25;45.53;;;7.22;;
55597;SDS011;41463;53.186;5.552;2022-12-24T05:08:54;61.08;;;7.82;;
55597;SDS011;41463;53.186;5.552;2022-12-24T05:11:20;59.47;;;8.48;;
55597;SDS011;41463;53.186;5.552;2022-12-24T05:13:46;49.22;;;7.68;;
55597;SDS011;41463;53.186;5.552;2022-12-24T05:16:12;57.15;;;7.32;;
55597;SDS011;41463;53.186;5.552;2022-12-24T05:18:39;58.75;;;7.47;;
55597;SDS011;41463;53.186;5.552;2022-12-24T05:21:15;50.50;;;7.80;;
55597;SDS011;41463;53.186;5.552;2022-12-24T05:23:43;56.03;;;7.35;;
55597;SDS011;41463;53.186;5.552;2022-12-24T05:26:29;52.83;;;7.68;;
55597;SDS011;41463;53.186;5.552;2022-12-24T05:28:58;62.00;;;8.57;;
55597;SDS011;41463;53.186;5.552;2022-12-24T05:31:25;62.58;;;7.95;;
55597;SDS011;41463;53.186;5.552;2022-12-24T05:33:52;57.50;;;7.55;;
55597;SDS011;41463;53.186;5.552;2022-12-24T05:36:19;53.22;;;7.22;;
55597;SDS011;41463;53.186;5.552;2022-12-24T05:38:45;69.05;;;7.60;;
55597;SDS011;41463;53.186;5.552;2022-12-24T05:41:11;58.67;;;7.85;;
55597;SDS011;41463;53.186;5.552;2022-12-24T05:43:37;61.15;;;7.57;;
55597;SDS011;41463;53.186;5.552;2022-12-24T05:46:04;61.35;;;8.18;;
55597;SDS011;41463;53.186;5.552;2022-12-24T05:48:34;50.33;;;7.78;;
55597;SDS011;41463;53.186;5.552;2022-12-24T05:51:05;60.47;;;7.40;;
55597;SDS011;41463;53.186;5.552;2022-12-24T05:53:33;63.28;;;8.20;;
55597;SDS011;41463;53.186;5.552;2022-12-24T05:56:10;66.00;;;7.35;;
55597;SDS011;41463;53.186;5.552;2022-12-24T05:58:38;52.88;;;6.43;;
55597;SDS011;41463;53.186;5.552;2022-12-24T06:01:05;69.38;;;7.50;;
55597;SDS011;41463;53.186;5.552;2022-12-24T06:03:32;68.65;;;6.85;;
55597;SDS011;41463;53.186;5.552;2022-12-24T06:06:02;57.70;;;8.15;;
55597;SDS011;41463;53.186;5.552;2022-12-24T06:08:34;47.53;;;7.57;;
55597;SDS011;41463;53.186;5.552;2022-12-24T06:11:04;58.97;;;8.48;;
55597;SDS011;41463;53.186;5.552;2022-12-24T06:13:32;53.80;;;7.43;;
55597;SDS011;41463;53.186;5.552;2022-12-24T06:15:59;48.17;;;7.70;;
55597;SDS011;41463;53.186;5.552;2022-12-24T06:18:29;60.83;;;7.20;;
55597;SDS011;41463;53.186;5.552;2022-12-24T06:20:56;57.95;;;8.20;;
55597;SDS011;41463;53.186;5.552;2022-12-24T06:23:22;52.22;;;7.15;;
55597;SDS011;41463;53.186;5.552;2022-12-24T06:25:49;62.58;;;7.70;;
55597;SDS011;41463;53.186;5.552;2022-12-24T06:28:15;46.03;;;7.50;;
55597;SDS011;41463;53.186;5.552;2022-12-24T06:30:45;56.42;;;7.80;;
55597;SDS011;41463;53.186;5.552;2022-12-24T06:33:12;48.53;;;7.40;;
55597;SDS011;41463;53.186;5.552;2022-12-24T06:35:38;46.35;;;8.05;;
55597;SDS011;41463;53.186;5.552;2022-12-24T06:38:04;64.15;;;7.53;;
55597;SDS011;41463;53.186;5.552;2022-12-24T06:40:29;55.45;;;7.50;;
55597;SDS011;41463;53.186;5.552;2022-12-24T06:42:57;61.15;;;8.38;;
55597;SDS011;41463;53.186;5.552;2022-12-24T06:45:23;55.30;;;7.72;;
55597;SDS011;41463;53.186;5.552;2022-12-24T06:47:51;57.60;;;7.72;;
55597;SDS011;41463;53.186;5.552;2022-12-24T06:50:17;58.83;;;7.60;;
55597;SDS011;41463;53.186;5.552;2022-12-24T06:52:43;50.20;;;7.90;;
55597;SDS011;41463;53.186;5.552;2022-12-24T06:55:09;58.83;;;8.30;;
55597;SDS011;41463;53.186;5.552;2022-12-24T06:57:35;59.10;;;8.23;;
55597;SDS011;41463;53.186;5.552;2022-12-24T07:00:00;73.63;;;7.90;;
55597;SDS011;41463;53.186;5.552;2022-12-24T07:02:30;53.75;;;8.18;;
55597;SDS011;41463;53.186;5.552;2022-12-24T07:04:56;53.58;;;7.60;;
55597;SDS011;41463;53.186;5.552;2022-12-24T07:07:22;45.03;;;7.70;;
55597;SDS011;41463;53.186;5.552;2022-12-24T07:09:47;53.05;;;6.95;;
55597;SDS011;41463;53.186;5.552;2022-12-24T07:12:13;58.83;;;7.75;;
55597;SDS011;41463;53.186;5.552;2022-12-24T07:14:39;49.28;;;7.85;;
55597;SDS011;41463;53.186;5.552;2022-12-24T07:17:05;49.67;;;8.30;;
55597;SDS011;41463;53.186;5.552;2022-12-24T07:19:31;56.83;;;9.05;;
55597;SDS011;41463;53.186;5.552;2022-12-24T07:21:58;49.38;;;8.43;;
55597;SDS011;41463;53.186;5.552;2022-12-24T07:24:26;53.88;;;8.15;;
55597;SDS011;41463;53.186;5.552;2022-12-24T07:26:52;59.03;;;8.18;;
55597;SDS011;41463;53.186;5.552;2022-12-24T07:29:18;52.28;;;8.20;;
55597;SDS011;41463;53.186;5.552;2022-12-24T07:31:44;66.10;;;8.30;;
55597;SDS011;41463;53.186;5.552;2022-12-24T07:34:10;59.80;;;8.65;;
55597;SDS011;41463;53.186;5.552;2022-12-24T07:36:36;62.65;;;7.90;;
55597;SDS011;41463;53.186;5.552;2022-12-24T07:39:04;52.08;;;8.00;;
55597;SDS011;41463;53.186;5.552;2022-12-24T07:41:30;68.90;;;7.25;;
55597;SDS011;41463;53.186;5.552;2022-12-24T07:43:56;51.97;;;6.68;;
55597;SDS011;41463;53.186;5.552;2022-12-24T07:46:21;52.65;;;6.60;;
55597;SDS011;41463;53.186;5.552;2022-12-24T07:48:47;57.88;;;7.50;;
55597;SDS011;41463;53.186;5.552;2022-12-24T07:51:13;53.78;;;6.97;;
55597;SDS011;41463;53.186;5.552;2022-12-24T07:53:39;56.50;;;6.55;;
55597;SDS011;41463;53.186;5.552;2022-12-24T07:56:11;49.80;;;7.18;;
55597;SDS011;41463;53.186;5.552;2022-12-24T07:58:38;44.38;;;6.90;;
55597;SDS011;41463;53.186;5.552;2022-12-24T08:01:08;41.15;;;6.35;;
55597;SDS011;41463;53.186;5.552;2022-12-24T08:03:36;46.85;;;6.88;;
55597;SDS011;41463;53.186;5.552;2022-12-24T08:06:02;52.95;;;6.60;;
55597;SDS011;41463;53.186;5.552;2022-12-24T08:08:29;52.88;;;7.05;;
55597;SDS011;41463;53.186;5.552;2022-12-24T08:11:01;35.25;;;6.05;;
55597;SDS011;41463;53.186;5.552;2022-12-24T08:13:28;45.63;;;5.93;;
55597;SDS011;41463;53.186;5.552;2022-12-24T08:15:55;50.35;;;6.15;;
55597;SDS011;41463;53.186;5.552;2022-12-24T08:18:21;39.55;;;6.72;;
55597;SDS011;41463;53.186;5.552;2022-12-24T08:20:47;34.80;;;5.68;;
55597;SDS011;41463;53.186;5.552;2022-12-24T08:23:13;46.85;;;6.95;;
55597;SDS011;41463;53.186;5.552;2022-12-24T08:25:42;45.83;;;6.82;;
55597;SDS011;41463;53.186;5.552;2022-12-24T08:28:10;47.70;;;5.57;;
55597;SDS011;41463;53.186;5.552;2022-12-24T08:30:36;39.70;;;6.78;;
55597;SDS011;41463;53.186;5.552;2022-12-24T08:33:02;43.78;;;6.50;;
55597;SDS011;41463;53.186;5.552;2022-12-24T08:35:28;40.40;;;6.40;;
55597;SDS011;41463;53.186;5.552;2022-12-24T08:37:53;46.72;;;6.50;;
55597;SDS011;41463;53.186;5.552;2022-12-24T08:40:19;41.78;;;5.78;;
55597;SDS011;41463;53.186;5.552;2022-12-24T08:42:45;49.03;;;5.75;;
55597;SDS011;41463;53.186;5.552;2022-12-24T08:45:11;41.08;;;6.07;;
55597;SDS011;41463;53.186;5.552;2022-12-24T08:47:37;50.28;;;6.50;;
55597;SDS011;41463;53.186;5.552;2022-12-24T08:50:04;53.55;;;6.78;;
55597;SDS011;41463;53.186;5.552;2022-12-24T08:52:31;38.70;;;6.20;;
55597;SDS011;41463;53.186;5.552;2022-12-24T08:54:57;40.28;;;5.90;;
55597;SDS011;41463;53.186;5.552;2022-12-24T08:57:23;47.03;;;6.65;;
55597;SDS011;41463;53.186;5.552;2022-12-24T08:59:49;53.92;;;7.68;;
55597;SDS011;41463;53.186;5.552;2022-12-24T09:02:15;49.20;;;6.70;;
55597;SDS011;41463;53.186;5.552;2022-12-24T09:04:41;51.03;;;6.88;;
55597;SDS011;41463;53.186;5.552;2022-12-24T09:07:07;50.78;;;7.28;;
55597;SDS011;41463;53.186;5.552;2022-12-24T09:09:34;45.30;;;6.63;;
55597;SDS011;41463;53.186;5.552;2022-12-24T09:12:00;53.85;;;8.25;;
55597;SDS011;41463;53.186;5.552;2022-12-24T09:14:27;59.90;;;6.60;;
55597;SDS011;41463;53.186;5.552;2022-12-24T09:16:53;57.83;;;7.57;;
55597;SDS011;41463;53.186;5.552;2022-12-24T09:19:19;57.90;;;6.80;;
55597;SDS011;41463;53.186;5.552;2022-12-24T09:21:44;44.47;;;5.55;;
55597;SDS011;41463;53.186;5.552;2022-12-24T09:24:10;51.13;;;7.18;;
55597;SDS011;41463;53.186;5.552;2022-12-24T09:26:36;44.67;;;6.10;;
55597;SDS011;41463;53.186;5.552;2022-12-24T09:29:05;41.38;;;6.40;;
55597;SDS011;41463;53.186;5.552;2022-12-24T09:31:31;53.58;;;6.95;;
55597;SDS011;41463;53.186;5.552;2022-12-24T09:33:57;49.30;;;6.95;;
55597;SDS011;41463;53.186;5.552;2022-12-24T09:36:24;44.60;;;5.93;;
55597;SDS011;41463;53.186;5.552;2022-12-24T09:38:59;54.67;;;7.50;;
55597;SDS011;41463;53.186;5.552;2022-12-24T09:47:33;46.55;;;5.97;;
55597;SDS011;41463;53.186;5.552;2022-12-24T09:50:29;53.08;;;8.30;;
55597;SDS011;41463;53.186;5.552;2022-12-24T09:55:48;49.03;;;7.30;;
55597;SDS011;41463;53.186;5.552;2022-12-24T09:58:26;49.80;;;6.03;;
55597;SDS011;41463;53.186;5.552;2022-12-24T10:01:02;52.03;;;6.38;;
55597;SDS011;41463;53.186;5.552;2022-12-24T10:03:28;51.70;;;6.40;;
55597;SDS011;41463;53.186;5.552;2022-12-24T10:08:41;40.95;;;6.68;;
55597;SDS011;41463;53.186;5.552;2022-12-24T10:27:34;35.35;;;6.03;;
55597;SDS011;41463;53.186;5.552;2022-12-24T10:30:11;39.38;;;6.50;;
55597;SDS011;41463;53.186;5.552;2022-12-24T10:32:42;34.90;;;6.40;;
55597;SDS011;41463;53.186;5.552;2022-12-24T10:37:38;40.13;;;6.70;;
55597;SDS011;41463;53.186;5.552;2022-12-24T10:40:05;38.42;;;6.45;;
55597;SDS011;41463;53.186;5.552;2022-12-24T10:42:38;41.08;;;5.78;;
55597;SDS011;41463;53.186;5.552;2022-12-24T10:45:09;41.72;;;6.30;;
55597;SDS011;41463;53.186;5.552;2022-12-24T10:47:40;33.08;;;5.75;;
55597;SDS011;41463;53.186;5.552;2022-12-24T10:52:54;31.13;;;5.72;;
55597;SDS011;41463;53.186;5.552;2022-12-24T10:55:41;31.30;;;4.72;;
55597;SDS011;41463;53.186;5.552;2022-12-24T10:58:11;30.85;;;5.22;;
55597;SDS011;41463;53.186;5.552;2022-12-24T11:05:41;33.75;;;5.55;;
55597;SDS011;41463;53.186;5.552;2022-12-24T11:10:39;33.28;;;5.03;;
55597;SDS011;41463;53.186;5.552;2022-12-24T11:13:22;42.88;;;5.88;;
55597;SDS011;41463;53.186;5.552;2022-12-24T11:18:30;27.20;;;4.65;;
55597;SDS011;41463;53.186;5.552;2022-12-24T11:21:00;24.85;;;4.88;;
55597;SDS011;41463;53.186;5.552;2022-12-24T11:23:27;35.00;;;5.38;;
55597;SDS011;41463;53.186;5.552;2022-12-24T11:25:54;33.30;;;5.57;;
55597;SDS011;41463;53.186;5.552;2022-12-24T11:28:22;31.60;;;5.25;;
55597;SDS011;41463;53.186;5.552;2022-12-24T11:31:15;27.10;;;4.93;;
55597;SDS011;41463;53.186;5.552;2022-12-24T11:33:45;18.42;;;4.28;;
55597;SDS011;41463;53.186;5.552;2022-12-24T11:36:19;27.05;;;4.60;;
55597;SDS011;41463;53.186;5.552;2022-12-24T11:38:51;32.85;;;5.45;;
55597;SDS011;41463;53.186;5.552;2022-12-24T11:41:18;26.45;;;4.95;;
55597;SDS011;41463;53.186;5.552;2022-12-24T11:43:49;22.63;;;4.38;;
55597;SDS011;41463;53.186;5.552;2022-12-24T11:46:21;32.67;;;5.13;;
55597;SDS011;41463;53.186;5.552;2022-12-24T11:51:36;35.53;;;5.55;;
55597;SDS011;41463;53.186;5.552;2022-12-24T11:54:15;28.90;;;5.05;;
55597;SDS011;41463;53.186;5.552;2022-12-24T11:56:48;30.52;;;5.38;;
55597;SDS011;41463;53.186;5.552;2022-12-24T12:01:56;25.15;;;4.72;;
55597;SDS011;41463;53.186;5.552;2022-12-24T12:04:36;24.40;;;4.93;;
55597;SDS011;41463;53.186;5.552;2022-12-24T12:07:14;22.73;;;4.38;;
55597;SDS011;41463;53.186;5.552;2022-12-24T12:09:50;20.75;;;4.00;;
55597;SDS011;41463;53.186;5.552;2022-12-24T12:12:23;21.40;;;5.32;;
55597;SDS011;41463;53.186;5.552;2022-12-24T12:15:05;23.23;;;4.13;;
55597;SDS011;41463;53.186;5.552;2022-12-24T12:20:31;26.35;;;4.35;;
55597;SDS011;41463;53.186;5.552;2022-12-24T12:25:51;25.30;;;3.97;;
55597;SDS011;41463;53.186;5.552;2022-12-24T12:28:20;20.98;;;4.43;;
55597;SDS011;41463;53.186;5.552;2022-12-24T12:36:30;23.70;;;4.38;;
55597;SDS011;41463;53.186;5.552;2022-12-24T12:39:04;27.25;;;5.30;;
55597;SDS011;41463;53.186;5.552;2022-12-24T12:42:21;27.58;;;4.75;;
55597;SDS011;41463;53.186;5.552;2022-12-24T12:58:46;22.63;;;4.45;;
55597;SDS011;41463;53.186;5.552;2022-12-24T13:01:39;22.38;;;4.18;;
55597;SDS011;41463;53.186;5.552;2022-12-24T13:04:29;32.15;;;5.05;;
55597;SDS011;41463;53.186;5.552;2022-12-24T13:20:56;29.48;;;5.45;;
55597;SDS011;41463;53.186;5.552;2022-12-24T13:23:25;27.77;;;5.00;;
55597;SDS011;41463;53.186;5.552;2022-12-24T13:25:55;27.77;;;4.43;;
55597;SDS011;41463;53.186;5.552;2022-12-24T13:38:34;21.83;;;4.03;;
55597;SDS011;41463;53.186;5.552;2022-12-24T13:44:21;29.42;;;4.43;;
55597;SDS011;41463;53.186;5.552;2022-12-24T13:46:57;22.20;;;4.28;;
55597;SDS011;41463;53.186;5.552;2022-12-24T13:49:49;23.77;;;4.30;;
55597;SDS011;41463;53.186;5.552;2022-12-24T13:52:18;27.35;;;4.78;;
55597;SDS011;41463;53.186;5.552;2022-12-24T13:55:18;25.15;;;4.40;;
55597;SDS011;41463;53.186;5.552;2022-12-24T13:57:40;25.85;;;4.43;;
55597;SDS011;41463;53.186;5.552;2022-12-24T14:08:56;28.02;;;4.43;;
55597;SDS011;41463;53.186;5.552;2022-12-24T14:16:02;30.75;;;5.55;;
55597;SDS011;41463;53.186;5.552;2022-12-24T14:18:34;25.90;;;5.72;;
55597;SDS011;41463;53.186;5.552;2022-12-24T14:21:06;22.95;;;5.05;;
55597;SDS011;41463;53.186;5.552;2022-12-24T14:23:50;38.72;;;6.30;;
55597;SDS011;41463;53.186;5.552;2022-12-24T14:26:29;30.80;;;4.78;;
55597;SDS011;41463;53.186;5.552;2022-12-24T14:28:59;39.03;;;6.47;;
55597;SDS011;41463;53.186;5.552;2022-12-24T14:31:48;28.48;;;4.65;;
55597;SDS011;41463;53.186;5.552;2022-12-24T14:34:21;29.88;;;4.75;;
55597;SDS011;41463;53.186;5.552;2022-12-24T14:36:51;28.83;;;4.72;;
55597;SDS011;41463;53.186;5.552;2022-12-24T14:39:30;27.23;;;4.20;;
55597;SDS011;41463;53.186;5.552;2022-12-24T14:50:25;29.45;;;4.53;;
55597;SDS011;41463;53.186;5.552;2022-12-24T14:52:57;24.60;;;4.35;;
55597;SDS011;41463;53.186;5.552;2022-12-24T15:01:23;31.02;;;3.97;;
55597;SDS011;41463;53.186;5.552;2022-12-24T15:04:03;21.85;;;3.88;;
55597;SDS011;41463;53.186;5.552;2022-12-24T15:06:30;38.83;;;4.75;;
55597;SDS011;41463;53.186;5.552;2022-12-24T15:08:58;16.63;;;3.88;;
55597;SDS011;41463;53.186;5.552;2022-12-24T15:11:28;30.98;;;7.00;;
55597;SDS011;41463;53.186;5.552;2022-12-24T15:14:01;30.35;;;4.82;;
55597;SDS011;41463;53.186;5.552;2022-12-24T15:16:31;35.42;;;4.40;;
55597;SDS011;41463;53.186;5.552;2022-12-24T15:18:59;20.55;;;3.75;;
55597;SDS011;41463;53.186;5.552;2022-12-24T15:21:33;38.00;;;4.35;;
55597;SDS011;41463;53.186;5.552;2022-12-24T15:24:08;27.48;;;4.43;;
55597;SDS011;41463;53.186;5.552;2022-12-24T15:26:57;36.50;;;4.10;;
55597;SDS011;41463;53.186;5.552;2022-12-24T15:29:25;35.67;;;4.30;;
55597;SDS011;41463;53.186;5.552;2022-12-24T15:31:56;31.67;;;4.28;;
55597;SDS011;41463;53.186;5.552;2022-12-24T15:34:45;26.55;;;4.10;;
55597;SDS011;41463;53.186;5.552;2022-12-24T15:37:18;42.08;;;5.43;;
55597;SDS011;41463;53.186;5.552;2022-12-24T15:42:41;31.73;;;4.78;;
55597;SDS011;41463;53.186;5.552;2022-12-24T15:45:18;28.55;;;4.90;;
55597;SDS011;41463;53.186;5.552;2022-12-24T15:52:46;31.45;;;4.90;;
55597;SDS011;41463;53.186;5.552;2022-12-24T15:55:26;26.83;;;4.63;;
55597;SDS011;41463;53.186;5.552;2022-12-24T15:57:58;24.42;;;4.55;;
55597;SDS011;41463;53.186;5.552;2022-12-24T16:00:25;27.15;;;5.03;;
55597;SDS011;41463;53.186;5.552;2022-12-24T16:03:07;26.52;;;4.00;;
55597;SDS011;41463;53.186;5.552;2022-12-24T16:05:42;23.20;;;4.32;;
55597;SDS011;41463;53.186;5.552;2022-12-24T16:10:41;24.10;;;4.43;;
55597;SDS011;41463;53.186;5.552;2022-12-24T16:13:29;31.25;;;4.82;;
55597;SDS011;41463;53.186;5.552;2022-12-24T16:15:57;23.90;;;3.42;;
55597;SDS011;41463;53.186;5.552;2022-12-24T16:18:35;29.65;;;4.95;;
55597;SDS011;41463;53.186;5.552;2022-12-24T16:21:22;32.30;;;8.90;;
55597;SDS011;41463;53.186;5.552;2022-12-24T16:24:22;29.33;;;9.38;;
55597;SDS011;41463;53.186;5.552;2022-12-24T16:26:55;29.58;;;6.53;;
55597;SDS011;41463;53.186;5.552;2022-12-24T16:29:22;35.50;;;7.68;;
55597;SDS011;41463;53.186;5.552;2022-12-24T16:31:52;27.40;;;6.50;;
55597;SDS011;41463;53.186;5.552;2022-12-24T16:34:29;26.77;;;5.97;;
55597;SDS011;41463;53.186;5.552;2022-12-24T16:36:56;31.13;;;5.72;;
55597;SDS011;41463;53.186;5.552;2022-12-24T16:39:30;27.02;;;6.47;;
55597;SDS011;41463;53.186;5.552;2022-12-24T16:42:00;30.70;;;8.82;;
55597;SDS011;41463;53.186;5.552;2022-12-24T16:44:46;24.40;;;8.55;;
55597;SDS011;41463;53.186;5.552;2022-12-24T16:47:14;21.67;;;7.78;;
55597;SDS011;41463;53.186;5.552;2022-12-24T16:49:42;24.85;;;8.27;;
55597;SDS011;41463;53.186;5.552;2022-12-24T16:52:18;25.08;;;8.07;;
55597;SDS011;41463;53.186;5.552;2022-12-24T16:54:47;22.25;;;7.00;;
55597;SDS011;41463;53.186;5.552;2022-12-24T16:57:20;26.67;;;7.18;;
55597;SDS011;41463;53.186;5.552;2022-12-24T16:59:58;37.13;;;13.18;;
55597;SDS011;41463;53.186;5.552;2022-12-24T17:02:33;33.67;;;9.80;;
55597;SDS011;41463;53.186;5.552;2022-12-24T17:05:04;29.83;;;7.00;;
55597;SDS011;41463;53.186;5.552;2022-12-24T17:07:32;29.20;;;6.63;;
55597;SDS011;41463;53.186;5.552;2022-12-24T17:09:58;30.55;;;6.25;;
55597;SDS011;41463;53.186;5.552;2022-12-24T17:12:24;20.15;;;6.15;;
55597;SDS011;41463;53.186;5.552;2022-12-24T17:14:50;32.05;;;7.13;;
55597;SDS011;41463;53.186;5.552;2022-12-24T17:17:18;25.90;;;6.15;;
55597;SDS011;41463;53.186;5.552;2022-12-24T17:19:51;24.15;;;6.22;;
55597;SDS011;41463;53.186;5.552;2022-12-24T17:22:18;18.90;;;6.90;;
55597;SDS011;41463;53.186;5.552;2022-12-24T17:24:55;18.60;;;5.68;;
55597;SDS011;41463;53.186;5.552;2022-12-24T17:27:24;25.63;;;5.55;;
55597;SDS011;41463;53.186;5.552;2022-12-24T17:29:59;32.35;;;5.45;;
55597;SDS011;41463;53.186;5.552;2022-12-24T17:32:25;20.38;;;4.53;;
55597;SDS011;41463;53.186;5.552;2022-12-24T17:34:54;29.55;;;10.15;;
55597;SDS011;41463;53.186;5.552;2022-12-24T17:37:24;23.77;;;6.15;;